sensor_id;sensor_type;location;lat;lon;timestamp;P1;durP1;ratioP1;P2;durP2;ratioP2
45208;SDS011;30951;43.994;26.260;2022-12-10T00:01:27;602.30;;;59.53;;
45208;SDS011;30951;43.994;26.260;2022-12-10T00:03:53;636.05;;;57.67;;
45208;SDS011;30951;43.994;26.260;2022-12-10T00:06:20;523.38;;;54.15;;
45208;SDS011;30951;43.994;26.260;2022-12-10T00:08:47;657.53;;;63.50;;
45208;SDS011;30951;43.994;26.260;2022-12-10T00:11:14;447.13;;;49.92;;
45208;SDS011;30951;43.994;26.260;2022-12-10T00:13:40;520.75;;;55.13;;
45208;SDS011;30951;43.994;26.260;2022-12-10T00:16:07;633.95;;;62.35;;
45208;SDS011;30951;43.994;26.260;2022-12-10T00:18:35;641.22;;;65.25;;
45208;SDS011;30951;43.994;26.260;2022-12-10T00:21:05;573.08;;;56.22;;
45208;SDS011;30951;43.994;26.260;2022-12-10T00:23:32;554.22;;;52.75;;
45208;SDS011;30951;43.994;26.260;2022-12-10T00:26:40;528.92;;;49.58;;
45208;SDS011;30951;43.994;26.260;2022-12-10T00:28:50;438.02;;;48.50;;
45208;SDS011;30951;43.994;26.260;2022-12-10T00:31:21;554.45;;;49.20;;
45208;SDS011;30951;43.994;26.260;2022-12-10T00:33:55;692.85;;;59.95;;
45208;SDS011;30951;43.994;26.260;2022-12-10T00:36:23;462.13;;;47.28;;
45208;SDS011;30951;43.994;26.260;2022-12-10T00:38:50;401.48;;;44.90;;
45208;SDS011;30951;43.994;26.260;2022-12-10T00:41:16;911.47;;;70.55;;
45208;SDS011;30951;43.994;26.260;2022-12-10T00:43:42;424.17;;;45.08;;
45208;SDS011;30951;43.994;26.260;2022-12-10T00:46:08;453.13;;;49.17;;
45208;SDS011;30951;43.994;26.260;2022-12-10T00:48:34;324.33;;;35.38;;
45208;SDS011;30951;43.994;26.260;2022-12-10T00:53:30;580.83;;;55.17;;
45208;SDS011;30951;43.994;26.260;2022-12-10T00:55:57;664.70;;;50.60;;
45208;SDS011;30951;43.994;26.260;2022-12-10T00:58:25;410.55;;;43.30;;
45208;SDS011;30951;43.994;26.260;2022-12-10T01:00:52;636.60;;;51.63;;
45208;SDS011;30951;43.994;26.260;2022-12-10T01:03:18;377.90;;;41.33;;
45208;SDS011;30951;43.994;26.260;2022-12-10T01:05:43;277.27;;;36.05;;
45208;SDS011;30951;43.994;26.260;2022-12-10T01:08:09;401.13;;;39.45;;
45208;SDS011;30951;43.994;26.260;2022-12-10T01:10:34;370.60;;;40.30;;
45208;SDS011;30951;43.994;26.260;2022-12-10T01:13:00;380.25;;;40.17;;
45208;SDS011;30951;43.994;26.260;2022-12-10T01:15:26;360.45;;;37.08;;
45208;SDS011;30951;43.994;26.260;2022-12-10T01:17:51;339.77;;;35.88;;
45208;SDS011;30951;43.994;26.260;2022-12-10T01:20:17;495.30;;;47.80;;
45208;SDS011;30951;43.994;26.260;2022-12-10T01:22:42;326.65;;;34.03;;
45208;SDS011;30951;43.994;26.260;2022-12-10T01:25:08;504.02;;;43.60;;
45208;SDS011;30951;43.994;26.260;2022-12-10T01:27:33;433.52;;;39.05;;
45208;SDS011;30951;43.994;26.260;2022-12-10T01:29:59;394.88;;;34.45;;
45208;SDS011;30951;43.994;26.260;2022-12-10T01:32:24;533.83;;;42.80;;
45208;SDS011;30951;43.994;26.260;2022-12-10T01:34:50;386.02;;;37.33;;
45208;SDS011;30951;43.994;26.260;2022-12-10T01:37:15;394.30;;;35.55;;
45208;SDS011;30951;43.994;26.260;2022-12-10T01:39:41;420.35;;;35.63;;
45208;SDS011;30951;43.994;26.260;2022-12-10T01:42:08;319.58;;;34.80;;
45208;SDS011;30951;43.994;26.260;2022-12-10T01:47:06;612.83;;;44.88;;
45208;SDS011;30951;43.994;26.260;2022-12-10T01:49:36;386.75;;;34.58;;
45208;SDS011;30951;43.994;26.260;2022-12-10T01:54:33;763.22;;;53.72;;
45208;SDS011;30951;43.994;26.260;2022-12-10T01:57:02;636.03;;;42.95;;
45208;SDS011;30951;43.994;26.260;2022-12-10T01:59:30;661.35;;;46.08;;
45208;SDS011;30951;43.994;26.260;2022-12-10T02:07:27;658.45;;;46.80;;
45208;SDS011;30951;43.994;26.260;2022-12-10T02:10:00;382.70;;;36.47;;
45208;SDS011;30951;43.994;26.260;2022-12-10T02:12:37;413.05;;;38.88;;
45208;SDS011;30951;43.994;26.260;2022-12-10T02:15:15;468.95;;;43.47;;
45208;SDS011;30951;43.994;26.260;2022-12-10T02:20:38;388.27;;;37.17;;
45208;SDS011;30951;43.994;26.260;2022-12-10T02:23:13;325.50;;;35.90;;
45208;SDS011;30951;43.994;26.260;2022-12-10T02:31:03;258.40;;;30.20;;
45208;SDS011;30951;43.994;26.260;2022-12-10T02:33:30;289.25;;;31.52;;
45208;SDS011;30951;43.994;26.260;2022-12-10T02:35:56;308.75;;;31.33;;
45208;SDS011;30951;43.994;26.260;2022-12-10T02:38:25;319.23;;;32.08;;
45208;SDS011;30951;43.994;26.260;2022-12-10T02:40:53;268.83;;;30.42;;
45208;SDS011;30951;43.994;26.260;2022-12-10T02:43:23;325.85;;;31.35;;
45208;SDS011;30951;43.994;26.260;2022-12-10T02:45:49;285.30;;;29.88;;
45208;SDS011;30951;43.994;26.260;2022-12-10T02:48:15;264.60;;;28.75;;
45208;SDS011;30951;43.994;26.260;2022-12-10T02:50:41;334.20;;;32.78;;
45208;SDS011;30951;43.994;26.260;2022-12-10T02:53:06;405.65;;;35.15;;
45208;SDS011;30951;43.994;26.260;2022-12-10T02:55:37;211.23;;;29.27;;
45208;SDS011;30951;43.994;26.260;2022-12-10T02:58:20;281.10;;;30.65;;
45208;SDS011;30951;43.994;26.260;2022-12-10T03:00:50;187.05;;;25.27;;
45208;SDS011;30951;43.994;26.260;2022-12-10T03:03:52;112.68;;;24.50;;
45208;SDS011;30951;43.994;26.260;2022-12-10T03:06:36;122.07;;;22.70;;
45208;SDS011;30951;43.994;26.260;2022-12-10T03:09:08;144.75;;;23.60;;
45208;SDS011;30951;43.994;26.260;2022-12-10T03:11:37;131.88;;;24.88;;
45208;SDS011;30951;43.994;26.260;2022-12-10T03:14:05;151.32;;;22.98;;
45208;SDS011;30951;43.994;26.260;2022-12-10T03:16:54;154.55;;;22.48;;
45208;SDS011;30951;43.994;26.260;2022-12-10T03:19:21;134.93;;;21.65;;
45208;SDS011;30951;43.994;26.260;2022-12-10T03:21:49;262.05;;;29.20;;
45208;SDS011;30951;43.994;26.260;2022-12-10T03:24:16;161.65;;;24.88;;
45208;SDS011;30951;43.994;26.260;2022-12-10T03:26:42;197.27;;;27.60;;
45208;SDS011;30951;43.994;26.260;2022-12-10T03:29:10;136.63;;;21.50;;
45208;SDS011;30951;43.994;26.260;2022-12-10T03:31:39;99.78;;;22.40;;
45208;SDS011;30951;43.994;26.260;2022-12-10T03:34:06;276.52;;;30.63;;
45208;SDS011;30951;43.994;26.260;2022-12-10T03:36:32;239.82;;;28.25;;
45208;SDS011;30951;43.994;26.260;2022-12-10T03:38:57;202.45;;;26.02;;
45208;SDS011;30951;43.994;26.260;2022-12-10T03:41:23;318.42;;;29.77;;
45208;SDS011;30951;43.994;26.260;2022-12-10T03:43:53;144.50;;;22.38;;
45208;SDS011;30951;43.994;26.260;2022-12-10T03:46:20;180.57;;;24.08;;
45208;SDS011;30951;43.994;26.260;2022-12-10T03:48:46;107.35;;;19.55;;
45208;SDS011;30951;43.994;26.260;2022-12-10T03:51:11;241.35;;;26.60;;
45208;SDS011;30951;43.994;26.260;2022-12-10T03:53:37;94.28;;;19.02;;
45208;SDS011;30951;43.994;26.260;2022-12-10T03:56:02;103.00;;;18.42;;
45208;SDS011;30951;43.994;26.260;2022-12-10T03:58:28;144.98;;;20.75;;
45208;SDS011;30951;43.994;26.260;2022-12-10T04:00:53;145.10;;;22.05;;
45208;SDS011;30951;43.994;26.260;2022-12-10T04:03:19;73.05;;;16.75;;
45208;SDS011;30951;43.994;26.260;2022-12-10T04:05:44;164.60;;;24.40;;
45208;SDS011;30951;43.994;26.260;2022-12-10T04:08:10;170.52;;;23.77;;
45208;SDS011;30951;43.994;26.260;2022-12-10T04:10:36;268.30;;;27.58;;
45208;SDS011;30951;43.994;26.260;2022-12-10T04:13:03;412.77;;;35.38;;
45208;SDS011;30951;43.994;26.260;2022-12-10T04:15:47;224.40;;;26.80;;
45208;SDS011;30951;43.994;26.260;2022-12-10T04:18:31;131.25;;;21.17;;
45208;SDS011;30951;43.994;26.260;2022-12-10T04:20:56;123.20;;;21.58;;
45208;SDS011;30951;43.994;26.260;2022-12-10T04:23:40;179.00;;;24.60;;
45208;SDS011;30951;43.994;26.260;2022-12-10T04:26:24;126.43;;;23.17;;
45208;SDS011;30951;43.994;26.260;2022-12-10T04:29:08;121.68;;;21.52;;
45208;SDS011;30951;43.994;26.260;2022-12-10T04:31:34;138.73;;;23.90;;
45208;SDS011;30951;43.994;26.260;2022-12-10T04:34:00;221.38;;;29.20;;
45208;SDS011;30951;43.994;26.260;2022-12-10T04:36:25;155.93;;;25.13;;
45208;SDS011;30951;43.994;26.260;2022-12-10T04:38:51;399.27;;;40.00;;
45208;SDS011;30951;43.994;26.260;2022-12-10T04:41:16;88.78;;;22.63;;
45208;SDS011;30951;43.994;26.260;2022-12-10T04:43:42;278.50;;;30.20;;
45208;SDS011;30951;43.994;26.260;2022-12-10T04:46:09;501.50;;;41.20;;
45208;SDS011;30951;43.994;26.260;2022-12-10T04:48:35;340.92;;;31.98;;
45208;SDS011;30951;43.994;26.260;2022-12-10T04:51:00;584.47;;;44.08;;
45208;SDS011;30951;43.994;26.260;2022-12-10T04:53:26;406.63;;;36.47;;
45208;SDS011;30951;43.994;26.260;2022-12-10T04:55:51;415.77;;;39.05;;
45208;SDS011;30951;43.994;26.260;2022-12-10T04:58:17;229.13;;;28.25;;
45208;SDS011;30951;43.994;26.260;2022-12-10T05:00:42;406.35;;;34.55;;
45208;SDS011;30951;43.994;26.260;2022-12-10T05:03:08;417.83;;;35.17;;
45208;SDS011;30951;43.994;26.260;2022-12-10T05:05:36;313.20;;;31.80;;
45208;SDS011;30951;43.994;26.260;2022-12-10T05:08:02;320.98;;;32.63;;
45208;SDS011;30951;43.994;26.260;2022-12-10T05:10:27;649.03;;;47.40;;
45208;SDS011;30951;43.994;26.260;2022-12-10T05:12:53;395.55;;;36.70;;
45208;SDS011;30951;43.994;26.260;2022-12-10T05:15:19;540.55;;;42.95;;
45208;SDS011;30951;43.994;26.260;2022-12-10T05:17:44;470.67;;;40.80;;
45208;SDS011;30951;43.994;26.260;2022-12-10T05:20:10;616.35;;;43.17;;
45208;SDS011;30951;43.994;26.260;2022-12-10T05:22:35;578.80;;;43.72;;
45208;SDS011;30951;43.994;26.260;2022-12-10T05:25:19;596.47;;;44.13;;
45208;SDS011;30951;43.994;26.260;2022-12-10T05:27:45;416.80;;;40.28;;
45208;SDS011;30951;43.994;26.260;2022-12-10T05:30:11;379.88;;;37.38;;
45208;SDS011;30951;43.994;26.260;2022-12-10T05:32:36;491.00;;;42.70;;
45208;SDS011;30951;43.994;26.260;2022-12-10T05:35:02;534.15;;;44.45;;
45208;SDS011;30951;43.994;26.260;2022-12-10T05:37:28;566.20;;;47.88;;
45208;SDS011;30951;43.994;26.260;2022-12-10T05:39:53;684.05;;;52.08;;
45208;SDS011;30951;43.994;26.260;2022-12-10T05:42:19;626.03;;;45.60;;
45208;SDS011;30951;43.994;26.260;2022-12-10T05:44:45;661.10;;;47.72;;
45208;SDS011;30951;43.994;26.260;2022-12-10T05:47:10;644.90;;;49.50;;
45208;SDS011;30951;43.994;26.260;2022-12-10T05:49:36;512.05;;;40.72;;
45208;SDS011;30951;43.994;26.260;2022-12-10T05:52:02;528.67;;;41.10;;
45208;SDS011;30951;43.994;26.260;2022-12-10T05:54:28;605.45;;;47.60;;
45208;SDS011;30951;43.994;26.260;2022-12-10T05:56:53;459.00;;;52.63;;
45208;SDS011;30951;43.994;26.260;2022-12-10T05:59:19;514.38;;;51.30;;
45208;SDS011;30951;43.994;26.260;2022-12-10T06:01:44;677.65;;;58.13;;
45208;SDS011;30951;43.994;26.260;2022-12-10T06:04:10;646.92;;;57.72;;
45208;SDS011;30951;43.994;26.260;2022-12-10T06:06:37;458.95;;;44.92;;
45208;SDS011;30951;43.994;26.260;2022-12-10T06:09:03;133.70;;;29.30;;
45208;SDS011;30951;43.994;26.260;2022-12-10T06:11:30;229.48;;;38.47;;
45208;SDS011;30951;43.994;26.260;2022-12-10T06:13:56;189.35;;;36.13;;
45208;SDS011;30951;43.994;26.260;2022-12-10T06:16:23;348.15;;;43.33;;
45208;SDS011;30951;43.994;26.260;2022-12-10T06:18:48;130.18;;;29.70;;
45208;SDS011;30951;43.994;26.260;2022-12-10T06:21:14;177.10;;;36.00;;
45208;SDS011;30951;43.994;26.260;2022-12-10T06:23:41;248.23;;;37.13;;
45208;SDS011;30951;43.994;26.260;2022-12-10T06:28:34;421.20;;;46.05;;
45208;SDS011;30951;43.994;26.260;2022-12-10T06:30:59;339.13;;;44.70;;
45208;SDS011;30951;43.994;26.260;2022-12-10T06:33:25;355.25;;;41.28;;
45208;SDS011;30951;43.994;26.260;2022-12-10T06:35:51;516.58;;;51.83;;
45208;SDS011;30951;43.994;26.260;2022-12-10T06:38:16;477.35;;;51.33;;
45208;SDS011;30951;43.994;26.260;2022-12-10T06:40:42;388.23;;;47.13;;
45208;SDS011;30951;43.994;26.260;2022-12-10T06:43:07;440.25;;;51.00;;
45208;SDS011;30951;43.994;26.260;2022-12-10T06:45:33;366.23;;;48.72;;
45208;SDS011;30951;43.994;26.260;2022-12-10T06:47:58;122.00;;;33.47;;
45208;SDS011;30951;43.994;26.260;2022-12-10T06:50:24;227.90;;;37.38;;
45208;SDS011;30951;43.994;26.260;2022-12-10T06:52:50;175.07;;;35.38;;
45208;SDS011;30951;43.994;26.260;2022-12-10T06:55:16;148.15;;;32.22;;
45208;SDS011;30951;43.994;26.260;2022-12-10T06:57:41;146.10;;;33.05;;
45208;SDS011;30951;43.994;26.260;2022-12-10T07:00:07;104.80;;;41.33;;
45208;SDS011;30951;43.994;26.260;2022-12-10T07:02:33;66.20;;;27.40;;
45208;SDS011;30951;43.994;26.260;2022-12-10T07:04:59;44.78;;;25.08;;
45208;SDS011;30951;43.994;26.260;2022-12-10T07:07:25;39.70;;;24.58;;
45208;SDS011;30951;43.994;26.260;2022-12-10T07:09:50;33.75;;;21.83;;
45208;SDS011;30951;43.994;26.260;2022-12-10T07:12:18;34.63;;;22.75;;
45208;SDS011;30951;43.994;26.260;2022-12-10T07:14:43;38.53;;;24.08;;
45208;SDS011;30951;43.994;26.260;2022-12-10T07:17:11;43.75;;;22.27;;
45208;SDS011;30951;43.994;26.260;2022-12-10T07:19:37;38.92;;;23.38;;
45208;SDS011;30951;43.994;26.260;2022-12-10T07:22:02;58.42;;;31.17;;
45208;SDS011;30951;43.994;26.260;2022-12-10T07:24:28;52.90;;;30.33;;
45208;SDS011;30951;43.994;26.260;2022-12-10T07:26:53;41.88;;;25.80;;
45208;SDS011;30951;43.994;26.260;2022-12-10T07:29:20;35.95;;;24.95;;
45208;SDS011;30951;43.994;26.260;2022-12-10T07:31:46;31.90;;;22.38;;
45208;SDS011;30951;43.994;26.260;2022-12-10T07:34:13;33.40;;;21.70;;
45208;SDS011;30951;43.994;26.260;2022-12-10T07:36:39;32.03;;;20.15;;
45208;SDS011;30951;43.994;26.260;2022-12-10T07:39:06;35.85;;;22.58;;
45208;SDS011;30951;43.994;26.260;2022-12-10T07:41:33;22.48;;;16.25;;
45208;SDS011;30951;43.994;26.260;2022-12-10T07:43:58;21.63;;;16.83;;
45208;SDS011;30951;43.994;26.260;2022-12-10T07:46:28;23.23;;;16.88;;
45208;SDS011;30951;43.994;26.260;2022-12-10T07:48:56;26.35;;;17.50;;
45208;SDS011;30951;43.994;26.260;2022-12-10T07:51:25;28.67;;;19.23;;
45208;SDS011;30951;43.994;26.260;2022-12-10T07:53:51;34.58;;;21.17;;
45208;SDS011;30951;43.994;26.260;2022-12-10T07:56:17;35.60;;;22.40;;
45208;SDS011;30951;43.994;26.260;2022-12-10T07:58:43;35.83;;;23.13;;
45208;SDS011;30951;43.994;26.260;2022-12-10T08:01:11;30.52;;;21.45;;
45208;SDS011;30951;43.994;26.260;2022-12-10T08:03:37;25.70;;;20.27;;
45208;SDS011;30951;43.994;26.260;2022-12-10T08:06:03;30.17;;;21.02;;
45208;SDS011;30951;43.994;26.260;2022-12-10T08:08:32;28.02;;;19.17;;
45208;SDS011;30951;43.994;26.260;2022-12-10T08:11:01;28.17;;;19.25;;
45208;SDS011;30951;43.994;26.260;2022-12-10T08:13:27;23.73;;;17.67;;
45208;SDS011;30951;43.994;26.260;2022-12-10T08:15:53;19.15;;;15.00;;
45208;SDS011;30951;43.994;26.260;2022-12-10T08:18:19;19.80;;;14.35;;
45208;SDS011;30951;43.994;26.260;2022-12-10T08:20:45;18.85;;;13.85;;
45208;SDS011;30951;43.994;26.260;2022-12-10T08:23:11;17.58;;;12.98;;
45208;SDS011;30951;43.994;26.260;2022-12-10T08:25:36;18.58;;;14.43;;
45208;SDS011;30951;43.994;26.260;2022-12-10T08:28:02;16.50;;;12.18;;
45208;SDS011;30951;43.994;26.260;2022-12-10T08:30:29;17.58;;;13.45;;
45208;SDS011;30951;43.994;26.260;2022-12-10T08:32:55;19.77;;;12.13;;
45208;SDS011;30951;43.994;26.260;2022-12-10T08:35:20;20.95;;;12.68;;
45208;SDS011;30951;43.994;26.260;2022-12-10T08:37:46;15.23;;;11.82;;
45208;SDS011;30951;43.994;26.260;2022-12-10T08:40:11;16.50;;;12.93;;
45208;SDS011;30951;43.994;26.260;2022-12-10T08:42:37;19.95;;;12.30;;
45208;SDS011;30951;43.994;26.260;2022-12-10T08:45:03;29.45;;;19.08;;
45208;SDS011;30951;43.994;26.260;2022-12-10T08:47:29;12.23;;;9.90;;
45208;SDS011;30951;43.994;26.260;2022-12-10T08:49:55;13.40;;;10.32;;
45208;SDS011;30951;43.994;26.260;2022-12-10T08:52:20;15.38;;;11.35;;
45208;SDS011;30951;43.994;26.260;2022-12-10T08:54:46;12.27;;;10.50;;
45208;SDS011;30951;43.994;26.260;2022-12-10T08:57:12;23.85;;;19.25;;
45208;SDS011;30951;43.994;26.260;2022-12-10T08:59:37;25.60;;;20.20;;
45208;SDS011;30951;43.994;26.260;2022-12-10T09:02:03;13.63;;;11.50;;
45208;SDS011;30951;43.994;26.260;2022-12-10T09:04:28;14.65;;;11.80;;
45208;SDS011;30951;43.994;26.260;2022-12-10T09:06:54;16.88;;;11.35;;
45208;SDS011;30951;43.994;26.260;2022-12-10T09:09:19;24.05;;;19.58;;
45208;SDS011;30951;43.994;26.260;2022-12-10T09:11:45;13.00;;;10.48;;
45208;SDS011;30951;43.994;26.260;2022-12-10T09:14:11;12.27;;;10.80;;
45208;SDS011;30951;43.994;26.260;2022-12-10T09:16:37;16.23;;;9.85;;
45208;SDS011;30951;43.994;26.260;2022-12-10T09:19:04;15.30;;;11.70;;
45208;SDS011;30951;43.994;26.260;2022-12-10T09:21:30;12.80;;;10.70;;
45208;SDS011;30951;43.994;26.260;2022-12-10T09:23:57;11.18;;;8.05;;
45208;SDS011;30951;43.994;26.260;2022-12-10T09:26:23;9.43;;;8.13;;
45208;SDS011;30951;43.994;26.260;2022-12-10T09:28:48;9.90;;;8.13;;
45208;SDS011;30951;43.994;26.260;2022-12-10T09:31:15;9.70;;;7.80;;
45208;SDS011;30951;43.994;26.260;2022-12-10T09:33:41;9.27;;;8.13;;
45208;SDS011;30951;43.994;26.260;2022-12-10T09:36:08;11.40;;;8.50;;
45208;SDS011;30951;43.994;26.260;2022-12-10T09:38:35;9.18;;;8.25;;
45208;SDS011;30951;43.994;26.260;2022-12-10T09:41:05;9.68;;;8.52;;
45208;SDS011;30951;43.994;26.260;2022-12-10T09:51:31;12.80;;;9.23;;
45208;SDS011;30951;43.994;26.260;2022-12-10T09:54:00;16.42;;;11.02;;
45208;SDS011;30951;43.994;26.260;2022-12-10T09:56:32;15.65;;;11.90;;
45208;SDS011;30951;43.994;26.260;2022-12-10T09:59:04;14.15;;;10.88;;
45208;SDS011;30951;43.994;26.260;2022-12-10T10:01:41;19.42;;;11.20;;
45208;SDS011;30951;43.994;26.260;2022-12-10T10:04:08;12.68;;;11.25;;
45208;SDS011;30951;43.994;26.260;2022-12-10T10:06:34;11.68;;;9.88;;
45208;SDS011;30951;43.994;26.260;2022-12-10T10:09:00;12.65;;;10.82;;
45208;SDS011;30951;43.994;26.260;2022-12-10T10:11:29;13.25;;;10.98;;
45208;SDS011;30951;43.994;26.260;2022-12-10T10:13:58;14.95;;;10.77;;
45208;SDS011;30951;43.994;26.260;2022-12-10T10:16:26;11.40;;;9.40;;
45208;SDS011;30951;43.994;26.260;2022-12-10T10:21:25;11.55;;;9.38;;
45208;SDS011;30951;43.994;26.260;2022-12-10T10:23:52;10.27;;;8.25;;
45208;SDS011;30951;43.994;26.260;2022-12-10T10:26:17;11.85;;;8.88;;
45208;SDS011;30951;43.994;26.260;2022-12-10T10:28:43;21.38;;;11.25;;
45208;SDS011;30951;43.994;26.260;2022-12-10T10:31:22;13.02;;;9.43;;
45208;SDS011;30951;43.994;26.260;2022-12-10T10:33:56;15.20;;;11.15;;
45208;SDS011;30951;43.994;26.260;2022-12-10T10:36:30;14.90;;;9.07;;
45208;SDS011;30951;43.994;26.260;2022-12-10T10:39:46;12.48;;;9.00;;
45208;SDS011;30951;43.994;26.260;2022-12-10T10:41:53;9.45;;;8.45;;
45208;SDS011;30951;43.994;26.260;2022-12-10T10:44:21;14.75;;;9.35;;
45208;SDS011;30951;43.994;26.260;2022-12-10T10:46:49;15.55;;;8.52;;
45208;SDS011;30951;43.994;26.260;2022-12-10T10:51:49;15.20;;;9.13;;
45208;SDS011;30951;43.994;26.260;2022-12-10T10:59:42;14.35;;;10.55;;
45208;SDS011;30951;43.994;26.260;2022-12-10T11:02:24;15.45;;;10.35;;
45208;SDS011;30951;43.994;26.260;2022-12-10T11:04:55;14.38;;;9.10;;
45208;SDS011;30951;43.994;26.260;2022-12-10T11:09:59;15.57;;;11.05;;
45208;SDS011;30951;43.994;26.260;2022-12-10T11:12:35;23.00;;;15.50;;
45208;SDS011;30951;43.994;26.260;2022-12-10T11:15:27;15.10;;;11.52;;
45208;SDS011;30951;43.994;26.260;2022-12-10T11:17:49;14.57;;;10.60;;
45208;SDS011;30951;43.994;26.260;2022-12-10T11:20:17;12.43;;;9.90;;
45208;SDS011;30951;43.994;26.260;2022-12-10T11:22:57;16.17;;;11.00;;
45208;SDS011;30951;43.994;26.260;2022-12-10T11:27:59;16.48;;;10.90;;
45208;SDS011;30951;43.994;26.260;2022-12-10T11:30:25;12.98;;;9.88;;
45208;SDS011;30951;43.994;26.260;2022-12-10T11:33:04;28.20;;;17.98;;
45208;SDS011;30951;43.994;26.260;2022-12-10T11:35:48;16.23;;;9.57;;
45208;SDS011;30951;43.994;26.260;2022-12-10T11:39:24;12.38;;;9.57;;
45208;SDS011;30951;43.994;26.260;2022-12-10T11:41:38;13.90;;;9.80;;
45208;SDS011;30951;43.994;26.260;2022-12-10T11:57:10;9.90;;;7.47;;
45208;SDS011;30951;43.994;26.260;2022-12-10T11:59:43;9.45;;;7.32;;
45208;SDS011;30951;43.994;26.260;2022-12-10T12:05:19;13.80;;;8.95;;
45208;SDS011;30951;43.994;26.260;2022-12-10T12:08:09;17.08;;;8.70;;
45208;SDS011;30951;43.994;26.260;2022-12-10T12:19:32;14.70;;;7.78;;
45208;SDS011;30951;43.994;26.260;2022-12-10T12:22:02;26.20;;;20.52;;
45208;SDS011;30951;43.994;26.260;2022-12-10T12:24:36;12.82;;;9.10;;
45208;SDS011;30951;43.994;26.260;2022-12-10T12:29:46;18.42;;;9.38;;
45208;SDS011;30951;43.994;26.260;2022-12-10T12:34:50;12.55;;;7.88;;
45208;SDS011;30951;43.994;26.260;2022-12-10T12:37:37;12.07;;;8.13;;
45208;SDS011;30951;43.994;26.260;2022-12-10T12:40:10;14.50;;;8.20;;
45208;SDS011;30951;43.994;26.260;2022-12-10T12:43:14;11.85;;;9.57;;
45208;SDS011;30951;43.994;26.260;2022-12-10T12:45:39;22.40;;;17.02;;
45208;SDS011;30951;43.994;26.260;2022-12-10T12:53:39;9.73;;;8.32;;
45208;SDS011;30951;43.994;26.260;2022-12-10T13:01:47;13.48;;;7.65;;
45208;SDS011;30951;43.994;26.260;2022-12-10T13:04:19;10.18;;;7.72;;
45208;SDS011;30951;43.994;26.260;2022-12-10T13:07:31;10.90;;;8.13;;
45208;SDS011;30951;43.994;26.260;2022-12-10T13:09:38;12.95;;;8.82;;
45208;SDS011;30951;43.994;26.260;2022-12-10T13:19:50;11.32;;;9.45;;
45208;SDS011;30951;43.994;26.260;2022-12-10T13:27:40;19.58;;;9.93;;
45208;SDS011;30951;43.994;26.260;2022-12-10T13:43:23;19.23;;;10.75;;
45208;SDS011;30951;43.994;26.260;2022-12-10T13:46:24;16.77;;;10.45;;
45208;SDS011;30951;43.994;26.260;2022-12-10T13:48:58;21.60;;;11.80;;
45208;SDS011;30951;43.994;26.260;2022-12-10T13:59:57;28.02;;;11.80;;
45208;SDS011;30951;43.994;26.260;2022-12-10T14:08:06;21.55;;;12.52;;
45208;SDS011;30951;43.994;26.260;2022-12-10T14:10:35;20.50;;;11.98;;
45208;SDS011;30951;43.994;26.260;2022-12-10T14:13:02;23.42;;;13.27;;
45208;SDS011;30951;43.994;26.260;2022-12-10T14:15:29;25.73;;;13.70;;
45208;SDS011;30951;43.994;26.260;2022-12-10T14:18:11;25.38;;;13.82;;
45208;SDS011;30951;43.994;26.260;2022-12-10T14:20:40;22.70;;;13.55;;
45208;SDS011;30951;43.994;26.260;2022-12-10T14:23:29;19.52;;;15.13;;
45208;SDS011;30951;43.994;26.260;2022-12-10T14:25:58;31.40;;;15.55;;
45208;SDS011;30951;43.994;26.260;2022-12-10T14:28:49;22.25;;;16.75;;
45208;SDS011;30951;43.994;26.260;2022-12-10T14:31:17;25.42;;;16.90;;
45208;SDS011;30951;43.994;26.260;2022-12-10T14:33:45;31.67;;;17.67;;
45208;SDS011;30951;43.994;26.260;2022-12-10T14:36:14;34.58;;;18.30;;
45208;SDS011;30951;43.994;26.260;2022-12-10T14:38:41;26.45;;;17.30;;
45208;SDS011;30951;43.994;26.260;2022-12-10T14:41:10;36.00;;;18.75;;
45208;SDS011;30951;43.994;26.260;2022-12-10T14:43:38;36.65;;;17.92;;
45208;SDS011;30951;43.994;26.260;2022-12-10T14:46:05;32.80;;;20.38;;
45208;SDS011;30951;43.994;26.260;2022-12-10T14:48:38;44.08;;;22.38;;
45208;SDS011;30951;43.994;26.260;2022-12-10T14:51:13;42.67;;;24.95;;
45208;SDS011;30951;43.994;26.260;2022-12-10T14:53:40;63.17;;;33.03;;
45208;SDS011;30951;43.994;26.260;2022-12-10T14:56:06;62.15;;;35.25;;
45208;SDS011;30951;43.994;26.260;2022-12-10T15:01:29;117.78;;;68.28;;
45208;SDS011;30951;43.994;26.260;2022-12-10T15:03:57;129.20;;;79.07;;
45208;SDS011;30951;43.994;26.260;2022-12-10T15:06:24;121.22;;;79.28;;
45208;SDS011;30951;43.994;26.260;2022-12-10T15:08:51;78.72;;;45.42;;
45208;SDS011;30951;43.994;26.260;2022-12-10T15:11:19;75.68;;;46.70;;
45208;SDS011;30951;43.994;26.260;2022-12-10T15:13:46;63.60;;;36.17;;
45208;SDS011;30951;43.994;26.260;2022-12-10T15:16:19;48.88;;;31.10;;
45208;SDS011;30951;43.994;26.260;2022-12-10T15:18:52;45.30;;;28.25;;
45208;SDS011;30951;43.994;26.260;2022-12-10T15:21:21;43.03;;;27.55;;
45208;SDS011;30951;43.994;26.260;2022-12-10T15:23:49;49.35;;;25.73;;
45208;SDS011;30951;43.994;26.260;2022-12-10T15:26:22;41.22;;;25.05;;
45208;SDS011;30951;43.994;26.260;2022-12-10T15:28:51;59.70;;;34.80;;
45208;SDS011;30951;43.994;26.260;2022-12-10T15:31:22;126.18;;;65.82;;
45208;SDS011;30951;43.994;26.260;2022-12-10T15:33:59;73.70;;;44.78;;
45208;SDS011;30951;43.994;26.260;2022-12-10T15:49:23;58.10;;;35.78;;
45208;SDS011;30951;43.994;26.260;2022-12-10T15:51:49;56.33;;;30.50;;
45208;SDS011;30951;43.994;26.260;2022-12-10T15:56:48;60.47;;;35.83;;
45208;SDS011;30951;43.994;26.260;2022-12-10T15:59:13;58.72;;;34.10;;
45208;SDS011;30951;43.994;26.260;2022-12-10T16:01:39;59.97;;;32.58;;
45208;SDS011;30951;43.994;26.260;2022-12-10T16:04:05;57.72;;;35.47;;
45208;SDS011;30951;43.994;26.260;2022-12-10T16:06:30;55.22;;;29.73;;
45208;SDS011;30951;43.994;26.260;2022-12-10T16:08:55;40.20;;;26.13;;
45208;SDS011;30951;43.994;26.260;2022-12-10T16:11:21;48.40;;;27.77;;
45208;SDS011;30951;43.994;26.260;2022-12-10T16:13:51;46.28;;;30.73;;
45208;SDS011;30951;43.994;26.260;2022-12-10T16:16:18;49.97;;;33.17;;
45208;SDS011;30951;43.994;26.260;2022-12-10T16:18:43;63.75;;;36.58;;
45208;SDS011;30951;43.994;26.260;2022-12-10T16:21:09;56.70;;;34.97;;
45208;SDS011;30951;43.994;26.260;2022-12-10T16:23:34;76.28;;;42.55;;
45208;SDS011;30951;43.994;26.260;2022-12-10T16:26:00;88.53;;;45.47;;
45208;SDS011;30951;43.994;26.260;2022-12-10T16:28:27;77.88;;;44.25;;
45208;SDS011;30951;43.994;26.260;2022-12-10T16:30:54;83.93;;;49.15;;
45208;SDS011;30951;43.994;26.260;2022-12-10T16:33:21;85.32;;;47.55;;
45208;SDS011;30951;43.994;26.260;2022-12-10T16:35:49;77.30;;;41.38;;
45208;SDS011;30951;43.994;26.260;2022-12-10T16:38:15;94.00;;;57.53;;
45208;SDS011;30951;43.994;26.260;2022-12-10T16:40:42;151.48;;;80.35;;
45208;SDS011;30951;43.994;26.260;2022-12-10T16:43:19;108.30;;;53.45;;